sensor_id;sensor_type;location;lat;lon;timestamp;pressure;altitude;pressure_sealevel;temperature;humidity
76766;BME280;65707;52.362;6.588;2022-12-29T00:01:29;99991.78;;;11.72;82.47
76766;BME280;65707;52.362;6.588;2022-12-29T00:03:56;99998.16;;;11.71;82.68
76766;BME280;65707;52.362;6.588;2022-12-29T00:06:23;99985.31;;;11.66;83.02
76766;BME280;65707;52.362;6.588;2022-12-29T00:08:50;99986.22;;;11.73;82.51
76766;BME280;65707;52.362;6.588;2022-12-29T00:11:18;99981.69;;;11.80;82.50
76766;BME280;65707;52.362;6.588;2022-12-29T00:13:51;99975.66;;;11.78;82.37
76766;BME280;65707;52.362;6.588;2022-12-29T00:16:47;99972.16;;;11.78;82.89
76766;BME280;65707;52.362;6.588;2022-12-29T00:19:14;99978.34;;;11.78;81.81
76766;BME280;65707;52.362;6.588;2022-12-29T00:21:55;99957.75;;;11.85;82.35
76766;BME280;65707;52.362;6.588;2022-12-29T00:24:54;99949.91;;;11.90;82.07
76766;BME280;65707;52.362;6.588;2022-12-29T00:27:38;99952.56;;;11.84;82.27
76766;BME280;65707;52.362;6.588;2022-12-29T00:30:24;99958.59;;;11.92;82.22
76766;BME280;65707;52.362;6.588;2022-12-29T00:33:09;99937.72;;;11.94;81.72
76766;BME280;65707;52.362;6.588;2022-12-29T00:35:56;99943.69;;;11.90;81.37
76766;BME280;65707;52.362;6.588;2022-12-29T00:38:27;99937.63;;;11.81;82.21
76766;BME280;65707;52.362;6.588;2022-12-29T00:41:13;99923.44;;;11.94;81.87
76766;BME280;65707;52.362;6.588;2022-12-29T00:43:57;99950.56;;;11.99;81.47
76766;BME280;65707;52.362;6.588;2022-12-29T00:46:37;99934.59;;;11.91;82.01
76766;BME280;65707;52.362;6.588;2022-12-29T00:49:06;99937.91;;;11.93;81.60
76766;BME280;65707;52.362;6.588;2022-12-29T00:51:52;99918.53;;;12.04;81.52
76766;BME280;65707;52.362;6.588;2022-12-29T00:54:21;99913.53;;;11.94;81.53
76766;BME280;65707;52.362;6.588;2022-12-29T00:56:48;99924.50;;;11.99;81.80
76766;BME280;65707;52.362;6.588;2022-12-29T00:59:17;99915.19;;;11.95;81.70
76766;BME280;65707;52.362;6.588;2022-12-29T01:01:46;99912.88;;;11.92;81.54
76766;BME280;65707;52.362;6.588;2022-12-29T01:04:14;99910.19;;;11.86;81.80
76766;BME280;65707;52.362;6.588;2022-12-29T01:06:41;99909.56;;;11.84;82.37
76766;BME280;65707;52.362;6.588;2022-12-29T01:09:08;99914.13;;;11.90;82.07
76766;BME280;65707;52.362;6.588;2022-12-29T01:11:53;99907.72;;;11.91;82.26
76766;BME280;65707;52.362;6.588;2022-12-29T01:14:20;99904.81;;;11.92;82.32
76766;BME280;65707;52.362;6.588;2022-12-29T01:16:50;99893.66;;;11.89;81.96
76766;BME280;65707;52.362;6.588;2022-12-29T01:19:18;99880.84;;;11.97;82.02
76766;BME280;65707;52.362;6.588;2022-12-29T01:21:46;99881.63;;;11.85;81.86
76766;BME280;65707;52.362;6.588;2022-12-29T01:24:14;99889.91;;;11.83;82.15
76766;BME280;65707;52.362;6.588;2022-12-29T01:26:41;99876.28;;;11.91;82.65
76766;BME280;65707;52.362;6.588;2022-12-29T01:29:11;99898.19;;;11.88;82.55
76766;BME280;65707;52.362;6.588;2022-12-29T01:31:38;99886.41;;;11.83;82.35
76766;BME280;65707;52.362;6.588;2022-12-29T01:34:06;99882.84;;;11.76;82.32
76766;BME280;65707;52.362;6.588;2022-12-29T01:36:33;99876.81;;;11.74;82.46
76766;BME280;65707;52.362;6.588;2022-12-29T01:39:01;99876.22;;;11.78;82.43
76766;BME280;65707;52.362;6.588;2022-12-29T01:41:28;99869.19;;;11.77;82.36
76766;BME280;65707;52.362;6.588;2022-12-29T01:43:57;99865.47;;;11.72;82.31
76766;BME280;65707;52.362;6.588;2022-12-29T01:46:29;99864.19;;;11.68;82.27
76766;BME280;65707;52.362;6.588;2022-12-29T01:49:05;99867.13;;;11.73;82.15
76766;BME280;65707;52.362;6.588;2022-12-29T01:51:40;99872.28;;;11.74;82.35
76766;BME280;65707;52.362;6.588;2022-12-29T01:54:15;99879.59;;;11.87;81.47
76766;BME280;65707;52.362;6.588;2022-12-29T01:56:47;99881.19;;;11.81;81.31
76766;BME280;65707;52.362;6.588;2022-12-29T01:59:19;99872.97;;;11.83;81.77
76766;BME280;65707;52.362;6.588;2022-12-29T02:01:51;99871.91;;;11.84;82.02
76766;BME280;65707;52.362;6.588;2022-12-29T02:04:19;99865.47;;;11.72;83.11
76766;BME280;65707;52.362;6.588;2022-12-29T02:06:49;99854.28;;;11.68;83.95
76766;BME280;65707;52.362;6.588;2022-12-29T02:09:21;99859.25;;;11.37;85.12
76766;BME280;65707;52.362;6.588;2022-12-29T02:11:48;99858.13;;;11.25;85.53
76766;BME280;65707;52.362;6.588;2022-12-29T02:14:15;99859.16;;;11.24;86.53
76766;BME280;65707;52.362;6.588;2022-12-29T02:16:55;99866.63;;;11.29;85.96
76766;BME280;65707;52.362;6.588;2022-12-29T02:19:50;99852.75;;;11.25;86.08
76766;BME280;65707;52.362;6.588;2022-12-29T02:22:52;99845.78;;;11.31;85.98
76766;BME280;65707;52.362;6.588;2022-12-29T02:25:58;99837.53;;;11.32;86.31
76766;BME280;65707;52.362;6.588;2022-12-29T02:28:52;99854.50;;;11.39;86.59
76766;BME280;65707;52.362;6.588;2022-12-29T02:31:40;99870.59;;;11.39;85.98
76766;BME280;65707;52.362;6.588;2022-12-29T02:34:22;99852.84;;;11.38;86.33
76766;BME280;65707;52.362;6.588;2022-12-29T02:37:00;99848.19;;;11.19;86.79
76766;BME280;65707;52.362;6.588;2022-12-29T02:39:38;99866.38;;;11.24;87.29
76766;BME280;65707;52.362;6.588;2022-12-29T02:42:13;99854.03;;;11.29;87.29
76766;BME280;65707;52.362;6.588;2022-12-29T02:44:54;99842.66;;;11.27;86.87
76766;BME280;65707;52.362;6.588;2022-12-29T02:47:35;99843.13;;;11.37;87.25
76766;BME280;65707;52.362;6.588;2022-12-29T02:50:08;99834.75;;;11.19;87.40
76766;BME280;65707;52.362;6.588;2022-12-29T02:52:46;99842.06;;;11.32;87.35
76766;BME280;65707;52.362;6.588;2022-12-29T02:55:16;99839.63;;;11.37;87.31
76766;BME280;65707;52.362;6.588;2022-12-29T02:57:42;99849.56;;;11.43;86.96
76766;BME280;65707;52.362;6.588;2022-12-29T03:00:11;99837.56;;;11.45;86.43
76766;BME280;65707;52.362;6.588;2022-12-29T03:03:00;99866.56;;;11.56;85.95
76766;BME280;65707;52.362;6.588;2022-12-29T03:05:55;99867.22;;;11.58;85.67
76766;BME280;65707;52.362;6.588;2022-12-29T03:08:40;99850.06;;;11.59;85.83
76766;BME280;65707;52.362;6.588;2022-12-29T03:11:15;99846.63;;;11.65;84.92
76766;BME280;65707;52.362;6.588;2022-12-29T03:14:03;99848.66;;;11.63;85.04
76766;BME280;65707;52.362;6.588;2022-12-29T03:16:57;99837.66;;;11.58;84.55
76766;BME280;65707;52.362;6.588;2022-12-29T03:19:35;99819.28;;;11.62;84.81
76766;BME280;65707;52.362;6.588;2022-12-29T03:22:05;99834.13;;;11.58;84.13
76766;BME280;65707;52.362;6.588;2022-12-29T03:24:56;99847.97;;;11.55;85.29
76766;BME280;65707;52.362;6.588;2022-12-29T03:27:29;99826.22;;;11.43;84.96
76766;BME280;65707;52.362;6.588;2022-12-29T03:30:01;99860.22;;;11.30;85.44
76766;BME280;65707;52.362;6.588;2022-12-29T03:32:32;99841.56;;;11.15;86.67
76766;BME280;65707;52.362;6.588;2022-12-29T03:35:05;99849.34;;;11.10;87.45
76766;BME280;65707;52.362;6.588;2022-12-29T03:37:41;99842.50;;;11.08;87.65
76766;BME280;65707;52.362;6.588;2022-12-29T03:40:16;99834.44;;;11.01;87.08
76766;BME280;65707;52.362;6.588;2022-12-29T03:42:44;99834.03;;;11.04;86.80
76766;BME280;65707;52.362;6.588;2022-12-29T03:45:13;99823.50;;;11.03;86.77
76766;BME280;65707;52.362;6.588;2022-12-29T03:47:40;99819.59;;;11.05;87.09
76766;BME280;65707;52.362;6.588;2022-12-29T03:50:14;99814.22;;;11.05;86.84
76766;BME280;65707;52.362;6.588;2022-12-29T03:52:45;99811.13;;;11.08;86.98
76766;BME280;65707;52.362;6.588;2022-12-29T03:55:12;99813.81;;;11.08;86.32
76766;BME280;65707;52.362;6.588;2022-12-29T03:57:39;99812.97;;;11.01;87.53
76766;BME280;65707;52.362;6.588;2022-12-29T04:00:07;99829.13;;;11.14;86.61
76766;BME280;65707;52.362;6.588;2022-12-29T04:02:36;99821.31;;;11.19;86.16
76766;BME280;65707;52.362;6.588;2022-12-29T04:05:03;99808.44;;;11.08;86.67
76766;BME280;65707;52.362;6.588;2022-12-29T04:07:32;99809.72;;;11.12;86.55
76766;BME280;65707;52.362;6.588;2022-12-29T04:09:59;99819.38;;;11.07;86.43
76766;BME280;65707;52.362;6.588;2022-12-29T04:12:26;99821.72;;;11.16;86.75
76766;BME280;65707;52.362;6.588;2022-12-29T04:14:53;99798.16;;;11.12;86.39
76766;BME280;65707;52.362;6.588;2022-12-29T04:17:20;99808.97;;;11.25;86.18
76766;BME280;65707;52.362;6.588;2022-12-29T04:19:47;99805.22;;;11.19;86.29
76766;BME280;65707;52.362;6.588;2022-12-29T04:22:14;99808.53;;;11.21;85.61
76766;BME280;65707;52.362;6.588;2022-12-29T04:24:42;99796.56;;;11.24;85.01
76766;BME280;65707;52.362;6.588;2022-12-29T04:27:09;99813.06;;;11.21;84.52
76766;BME280;65707;52.362;6.588;2022-12-29T04:29:37;99819.03;;;11.16;84.72
76766;BME280;65707;52.362;6.588;2022-12-29T04:32:04;99830.75;;;11.09;84.96
76766;BME280;65707;52.362;6.588;2022-12-29T04:34:31;99829.94;;;11.08;85.28
76766;BME280;65707;52.362;6.588;2022-12-29T04:36:58;99816.84;;;10.98;86.02
76766;BME280;65707;52.362;6.588;2022-12-29T04:39:25;99820.06;;;11.15;85.25
76766;BME280;65707;52.362;6.588;2022-12-29T04:41:53;99833.56;;;11.28;84.99
76766;BME280;65707;52.362;6.588;2022-12-29T04:44:21;99825.94;;;11.32;85.10
76766;BME280;65707;52.362;6.588;2022-12-29T04:46:47;99823.44;;;11.30;85.33
76766;BME280;65707;52.362;6.588;2022-12-29T04:49:14;99819.38;;;11.41;84.60
76766;BME280;65707;52.362;6.588;2022-12-29T04:51:41;99819.78;;;11.38;84.59
76766;BME280;65707;52.362;6.588;2022-12-29T04:54:08;99824.75;;;11.41;84.45
76766;BME280;65707;52.362;6.588;2022-12-29T04:56:35;99825.53;;;11.35;84.41
76766;BME280;65707;52.362;6.588;2022-12-29T04:59:03;99820.22;;;11.41;83.78
76766;BME280;65707;52.362;6.588;2022-12-29T05:01:29;99824.16;;;11.45;84.08
76766;BME280;65707;52.362;6.588;2022-12-29T05:03:56;99826.63;;;11.40;84.01
76766;BME280;65707;52.362;6.588;2022-12-29T05:06:23;99835.56;;;11.54;82.24
76766;BME280;65707;52.362;6.588;2022-12-29T05:08:50;99838.06;;;11.55;82.42
76766;BME280;65707;52.362;6.588;2022-12-29T05:11:16;99839.91;;;11.48;83.17
76766;BME280;65707;52.362;6.588;2022-12-29T05:13:44;99842.19;;;11.51;82.74
76766;BME280;65707;52.362;6.588;2022-12-29T05:16:13;99854.63;;;11.59;82.70
76766;BME280;65707;52.362;6.588;2022-12-29T05:18:40;99836.00;;;11.57;82.66
76766;BME280;65707;52.362;6.588;2022-12-29T05:21:06;99841.38;;;11.57;81.69
76766;BME280;65707;52.362;6.588;2022-12-29T05:23:33;99847.44;;;11.66;80.78
76766;BME280;65707;52.362;6.588;2022-12-29T05:26:00;99857.94;;;11.61;81.37
76766;BME280;65707;52.362;6.588;2022-12-29T05:28:27;99856.06;;;11.61;80.58
76766;BME280;65707;52.362;6.588;2022-12-29T05:30:53;99846.31;;;11.54;81.42
76766;BME280;65707;52.362;6.588;2022-12-29T05:33:21;99846.13;;;11.55;81.11
76766;BME280;65707;52.362;6.588;2022-12-29T05:35:48;99845.88;;;11.50;80.25
76766;BME280;65707;52.362;6.588;2022-12-29T05:38:15;99856.63;;;11.50;78.89
76766;BME280;65707;52.362;6.588;2022-12-29T05:40:42;99848.72;;;11.42;79.57
76766;BME280;65707;52.362;6.588;2022-12-29T05:43:09;99847.03;;;11.35;80.35
76766;BME280;65707;52.362;6.588;2022-12-29T05:45:36;99846.38;;;11.33;79.85
76766;BME280;65707;52.362;6.588;2022-12-29T05:48:04;99854.25;;;11.34;79.12
76766;BME280;65707;52.362;6.588;2022-12-29T05:50:32;99866.47;;;11.37;79.38
76766;BME280;65707;52.362;6.588;2022-12-29T05:52:59;99868.97;;;11.38;78.78
76766;BME280;65707;52.362;6.588;2022-12-29T05:55:25;99877.63;;;11.34;78.75
76766;BME280;65707;52.362;6.588;2022-12-29T05:57:53;99878.41;;;11.34;77.71
76766;BME280;65707;52.362;6.588;2022-12-29T06:00:19;99871.41;;;11.33;77.87
76766;BME280;65707;52.362;6.588;2022-12-29T06:02:46;99886.31;;;11.42;76.87
76766;BME280;65707;52.362;6.588;2022-12-29T06:05:13;99891.47;;;11.37;76.92
76766;BME280;65707;52.362;6.588;2022-12-29T06:07:41;99890.84;;;11.35;76.69
76766;BME280;65707;52.362;6.588;2022-12-29T06:10:09;99894.84;;;11.18;77.00
76766;BME280;65707;52.362;6.588;2022-12-29T06:12:36;99893.78;;;11.13;76.70
76766;BME280;65707;52.362;6.588;2022-12-29T06:15:04;99898.69;;;11.09;77.64
76766;BME280;65707;52.362;6.588;2022-12-29T06:17:32;99907.53;;;11.03;76.71
76766;BME280;65707;52.362;6.588;2022-12-29T06:19:58;99912.91;;;11.03;77.13
76766;BME280;65707;52.362;6.588;2022-12-29T06:22:25;99893.84;;;10.98;76.62
76766;BME280;65707;52.362;6.588;2022-12-29T06:24:53;99901.69;;;10.93;77.34
76766;BME280;65707;52.362;6.588;2022-12-29T06:27:20;99904.75;;;10.90;76.89
76766;BME280;65707;52.362;6.588;2022-12-29T06:29:47;99904.97;;;10.95;77.15
76766;BME280;65707;52.362;6.588;2022-12-29T06:32:15;99907.91;;;11.00;76.87
76766;BME280;65707;52.362;6.588;2022-12-29T06:34:41;99888.34;;;11.06;76.03
76766;BME280;65707;52.362;6.588;2022-12-29T06:37:10;99913.34;;;11.07;76.80
76766;BME280;65707;52.362;6.588;2022-12-29T06:39:37;99931.94;;;11.08;76.64
76766;BME280;65707;52.362;6.588;2022-12-29T06:42:05;99922.53;;;11.19;76.78
76766;BME280;65707;52.362;6.588;2022-12-29T06:44:32;99896.78;;;11.03;78.14
76766;BME280;65707;52.362;6.588;2022-12-29T06:46:58;99927.16;;;11.04;77.60
76766;BME280;65707;52.362;6.588;2022-12-29T06:49:25;99940.91;;;10.94;78.46
76766;BME280;65707;52.362;6.588;2022-12-29T06:51:52;99938.34;;;10.86;80.19
76766;BME280;65707;52.362;6.588;2022-12-29T06:54:19;99933.25;;;10.91;79.59
76766;BME280;65707;52.362;6.588;2022-12-29T06:56:45;99932.00;;;10.93;79.34
76766;BME280;65707;52.362;6.588;2022-12-29T06:59:14;99932.59;;;10.89;80.67
76766;BME280;65707;52.362;6.588;2022-12-29T07:01:40;99932.34;;;10.84;80.65
76766;BME280;65707;52.362;6.588;2022-12-29T07:04:07;99946.00;;;10.89;80.45
76766;BME280;65707;52.362;6.588;2022-12-29T07:06:34;99944.31;;;10.81;81.15
76766;BME280;65707;52.362;6.588;2022-12-29T07:09:01;99936.78;;;10.91;81.44
76766;BME280;65707;52.362;6.588;2022-12-29T07:11:28;99951.13;;;10.84;81.59
76766;BME280;65707;52.362;6.588;2022-12-29T07:13:54;99948.44;;;10.84;81.80
76766;BME280;65707;52.362;6.588;2022-12-29T07:16:22;99953.69;;;10.71;80.98
76766;BME280;65707;52.362;6.588;2022-12-29T07:18:49;99954.97;;;10.75;81.24
76766;BME280;65707;52.362;6.588;2022-12-29T07:21:17;99962.38;;;10.73;81.59
76766;BME280;65707;52.362;6.588;2022-12-29T07:23:44;99952.53;;;10.59;81.32
76766;BME280;65707;52.362;6.588;2022-12-29T07:26:13;99951.19;;;10.48;81.98
76766;BME280;65707;52.362;6.588;2022-12-29T07:28:43;99964.31;;;10.43;82.24
76766;BME280;65707;52.362;6.588;2022-12-29T07:31:13;99969.50;;;10.45;81.89
76766;BME280;65707;52.362;6.588;2022-12-29T07:33:44;99960.56;;;10.38;82.37
76766;BME280;65707;52.362;6.588;2022-12-29T07:36:12;99962.09;;;10.47;81.74
76766;BME280;65707;52.362;6.588;2022-12-29T07:38:39;99968.50;;;10.46;81.89
76766;BME280;65707;52.362;6.588;2022-12-29T07:41:06;99975.25;;;10.42;82.02
76766;BME280;65707;52.362;6.588;2022-12-29T07:43:33;99964.88;;;10.39;81.74
76766;BME280;65707;52.362;6.588;2022-12-29T07:46:00;99958.34;;;10.41;81.52
76766;BME280;65707;52.362;6.588;2022-12-29T07:48:28;99971.47;;;10.36;81.76
76766;BME280;65707;52.362;6.588;2022-12-29T07:50:56;99964.31;;;10.43;79.52
76766;BME280;65707;52.362;6.588;2022-12-29T07:53:23;99974.25;;;10.43;79.54
76766;BME280;65707;52.362;6.588;2022-12-29T07:55:49;99971.56;;;10.43;80.15
76766;BME280;65707;52.362;6.588;2022-12-29T07:58:16;99991.06;;;10.37;79.20
76766;BME280;65707;52.362;6.588;2022-12-29T08:00:43;99980.97;;;10.39;79.05
76766;BME280;65707;52.362;6.588;2022-12-29T08:03:12;100000.59;;;10.39;79.36
76766;BME280;65707;52.362;6.588;2022-12-29T08:05:39;100020.03;;;10.27;79.00
76766;BME280;65707;52.362;6.588;2022-12-29T08:08:07;100009.97;;;10.14;79.52
76766;BME280;65707;52.362;6.588;2022-12-29T08:10:34;100021.88;;;9.97;80.92
76766;BME280;65707;52.362;6.588;2022-12-29T08:13:00;100017.97;;;9.85;81.91
76766;BME280;65707;52.362;6.588;2022-12-29T08:15:27;100010.19;;;9.76;83.14
76766;BME280;65707;52.362;6.588;2022-12-29T08:17:54;100026.38;;;9.68;83.35
76766;BME280;65707;52.362;6.588;2022-12-29T08:20:21;100006.03;;;9.59;85.57
76766;BME280;65707;52.362;6.588;2022-12-29T08:22:47;99993.66;;;9.58;84.91
76766;BME280;65707;52.362;6.588;2022-12-29T08:25:16;99993.00;;;9.56;85.17
76766;BME280;65707;52.362;6.588;2022-12-29T08:27:44;99992.19;;;9.70;85.11
76766;BME280;65707;52.362;6.588;2022-12-29T08:30:12;100004.28;;;9.66;84.19
76766;BME280;65707;52.362;6.588;2022-12-29T08:32:39;100011.38;;;9.59;85.02
76766;BME280;65707;52.362;6.588;2022-12-29T08:35:07;100012.69;;;9.63;85.84
76766;BME280;65707;52.362;6.588;2022-12-29T08:37:34;100017.03;;;9.64;84.88
76766;BME280;65707;52.362;6.588;2022-12-29T08:40:01;100023.16;;;9.72;83.67
76766;BME280;65707;52.362;6.588;2022-12-29T08:42:30;100020.00;;;9.69;84.48
76766;BME280;65707;52.362;6.588;2022-12-29T08:44:59;100017.69;;;9.66;83.60
76766;BME280;65707;52.362;6.588;2022-12-29T08:47:27;100016.94;;;9.72;84.73
76766;BME280;65707;52.362;6.588;2022-12-29T08:49:54;100000.59;;;9.81;83.61
76766;BME280;65707;52.362;6.588;2022-12-29T08:52:21;100014.28;;;9.86;83.76
76766;BME280;65707;52.362;6.588;2022-12-29T08:54:48;100000.31;;;9.91;83.68
76766;BME280;65707;52.362;6.588;2022-12-29T08:57:14;100006.97;;;9.95;83.01
76766;BME280;65707;52.362;6.588;2022-12-29T08:59:42;100010.97;;;9.99;82.30
76766;BME280;65707;52.362;6.588;2022-12-29T09:02:10;100004.47;;;9.93;83.71
76766;BME280;65707;52.362;6.588;2022-12-29T09:04:37;99997.47;;;9.92;82.35
76766;BME280;65707;52.362;6.588;2022-12-29T09:07:04;99987.47;;;10.01;81.49
76766;BME280;65707;52.362;6.588;2022-12-29T09:09:31;99985.75;;;10.08;81.30
76766;BME280;65707;52.362;6.588;2022-12-29T09:11:58;99969.06;;;9.98;80.67
76766;BME280;65707;52.362;6.588;2022-12-29T09:14:25;99981.56;;;10.05;80.82
76766;BME280;65707;52.362;6.588;2022-12-29T09:16:54;100001.44;;;10.25;80.26
76766;BME280;65707;52.362;6.588;2022-12-29T09:19:38;99975.59;;;10.18;79.75
76766;BME280;65707;52.362;6.588;2022-12-29T09:22:05;99946.91;;;10.04;79.04
76766;BME280;65707;52.362;6.588;2022-12-29T09:24:33;99968.16;;;10.20;78.39
76766;BME280;65707;52.362;6.588;2022-12-29T09:26:59;99979.91;;;10.19;78.78
76766;BME280;65707;52.362;6.588;2022-12-29T09:29:26;99982.66;;;10.40;78.06
76766;BME280;65707;52.362;6.588;2022-12-29T09:31:54;99992.75;;;10.38;76.55
76766;BME280;65707;52.362;6.588;2022-12-29T09:34:21;99991.59;;;10.47;76.04
76766;BME280;65707;52.362;6.588;2022-12-29T09:36:48;99994.81;;;10.57;75.45
76766;BME280;65707;52.362;6.588;2022-12-29T09:39:15;100008.63;;;10.54;76.15
76766;BME280;65707;52.362;6.588;2022-12-29T09:41:47;100013.59;;;10.57;76.17
76766;BME280;65707;52.362;6.588;2022-12-29T09:44:23;100014.31;;;10.51;75.03
76766;BME280;65707;52.362;6.588;2022-12-29T09:46:59;100008.53;;;10.47;76.29
76766;BME280;65707;52.362;6.588;2022-12-29T09:49:30;100021.47;;;10.58;77.09
76766;BME280;65707;52.362;6.588;2022-12-29T09:52:08;100025.72;;;10.53;77.06
76766;BME280;65707;52.362;6.588;2022-12-29T09:54:46;99998.56;;;10.41;77.16
76766;BME280;65707;52.362;6.588;2022-12-29T09:57:22;99982.69;;;10.25;76.69
76766;BME280;65707;52.362;6.588;2022-12-29T09:59:55;100031.06;;;10.53;77.46
76766;BME280;65707;52.362;6.588;2022-12-29T10:02:37;100035.97;;;10.64;77.43
76766;BME280;65707;52.362;6.588;2022-12-29T10:05:20;100020.97;;;10.69;77.52
76766;BME280;65707;52.362;6.588;2022-12-29T10:08:04;100009.13;;;10.64;76.60
76766;BME280;65707;52.362;6.588;2022-12-29T10:10:46;99996.66;;;10.56;75.68
76766;BME280;65707;52.362;6.588;2022-12-29T10:13:28;100037.00;;;10.84;76.17
76766;BME280;65707;52.362;6.588;2022-12-29T10:16:10;100045.31;;;10.89;76.55
76766;BME280;65707;52.362;6.588;2022-12-29T10:19:03;100030.91;;;10.90;75.98
76766;BME280;65707;52.362;6.588;2022-12-29T10:21:55;99980.72;;;10.69;75.18
76766;BME280;65707;52.362;6.588;2022-12-29T10:24:31;100021.94;;;10.83;74.88
76766;BME280;65707;52.362;6.588;2022-12-29T10:27:05;100033.78;;;10.88;75.96
76766;BME280;65707;52.362;6.588;2022-12-29T10:29:38;100025.56;;;10.75;76.24
76766;BME280;65707;52.362;6.588;2022-12-29T10:32:24;100029.31;;;10.60;77.03
76766;BME280;65707;52.362;6.588;2022-12-29T10:34:58;100000.59;;;10.39;76.94
76766;BME280;65707;52.362;6.588;2022-12-29T10:37:37;100050.69;;;10.53;78.00
76766;BME280;65707;52.362;6.588;2022-12-29T10:40:18;100059.91;;;10.65;78.55
76766;BME280;65707;52.362;6.588;2022-12-29T10:42:53;100071.03;;;10.62;78.30
76766;BME280;65707;52.362;6.588;2022-12-29T10:45:23;100056.78;;;10.62;78.32
76766;BME280;65707;52.362;6.588;2022-12-29T10:47:58;100063.72;;;10.56;78.88
76766;BME280;65707;52.362;6.588;2022-12-29T10:50:31;100067.44;;;10.55;79.04
76766;BME280;65707;52.362;6.588;2022-12-29T10:53:02;100093.69;;;10.60;78.87
76766;BME280;65707;52.362;6.588;2022-12-29T10:55:33;100077.22;;;10.63;79.35
76766;BME280;65707;52.362;6.588;2022-12-29T10:58:04;100073.13;;;10.67;80.03
76766;BME280;65707;52.362;6.588;2022-12-29T11:00:33;100093.13;;;10.79;79.90
76766;BME280;65707;52.362;6.588;2022-12-29T11:03:25;100086.34;;;10.83;80.33
76766;BME280;65707;52.362;6.588;2022-12-29T11:06:12;100088.56;;;10.79;79.90
76766;BME280;65707;52.362;6.588;2022-12-29T11:08:50;100086.25;;;10.76;80.83
76766;BME280;65707;52.362;6.588;2022-12-29T11:11:25;100091.81;;;10.75;79.85
76766;BME280;65707;52.362;6.588;2022-12-29T11:13:59;100095.06;;;10.70;81.38
76766;BME280;65707;52.362;6.588;2022-12-29T11:16:31;100109.06;;;10.66;81.05
76766;BME280;65707;52.362;6.588;2022-12-29T11:19:00;100098.78;;;10.69;82.00
76766;BME280;65707;52.362;6.588;2022-12-29T11:21:33;100122.38;;;10.59;81.28
76766;BME280;65707;52.362;6.588;2022-12-29T11:24:18;100087.50;;;10.59;82.09
76766;BME280;65707;52.362;6.588;2022-12-29T11:26:50;100111.06;;;10.64;81.91
76766;BME280;65707;52.362;6.588;2022-12-29T11:29:24;100101.19;;;10.64;81.34
76766;BME280;65707;52.362;6.588;2022-12-29T11:31:54;100114.22;;;10.53;82.22
76766;BME280;65707;52.362;6.588;2022-12-29T11:34:25;100119.88;;;10.58;81.79
76766;BME280;65707;52.362;6.588;2022-12-29T11:37:02;100140.06;;;10.54;82.09
76766;BME280;65707;52.362;6.588;2022-12-29T11:39:35;100119.88;;;10.43;82.52
76766;BME280;65707;52.362;6.588;2022-12-29T11:42:06;100151.31;;;10.49;82.56
76766;BME280;65707;52.362;6.588;2022-12-29T11:44:43;100138.09;;;10.62;82.78
76766;BME280;65707;52.362;6.588;2022-12-29T11:47:19;100140.31;;;10.59;82.20
76766;BME280;65707;52.362;6.588;2022-12-29T11:49:51;100141.91;;;10.68;82.47
76766;BME280;65707;52.362;6.588;2022-12-29T11:52:28;100159.66;;;10.69;82.29
76766;BME280;65707;52.362;6.588;2022-12-29T11:55:02;100155.50;;;10.66;82.45
76766;BME280;65707;52.362;6.588;2022-12-29T11:57:33;100170.38;;;10.69;82.29
76766;BME280;65707;52.362;6.588;2022-12-29T12:00:03;100165.19;;;10.67;82.47
76766;BME280;65707;52.362;6.588;2022-12-29T12:02:42;100175.94;;;10.67;82.90
76766;BME280;65707;52.362;6.588;2022-12-29T12:05:23;100177.06;;;10.58;81.88
76766;BME280;65707;52.362;6.588;2022-12-29T12:08:02;100177.63;;;10.54;83.19
76766;BME280;65707;52.362;6.588;2022-12-29T12:10:40;100181.22;;;10.61;81.77
76766;BME280;65707;52.362;6.588;2022-12-29T12:13:18;100186.56;;;10.61;81.47
76766;BME280;65707;52.362;6.588;2022-12-29T12:15:52;100191.56;;;10.64;81.95
76766;BME280;65707;52.362;6.588;2022-12-29T12:18:32;100183.44;;;10.72;81.32
76766;BME280;65707;52.362;6.588;2022-12-29T12:21:10;100193.06;;;10.66;81.79
76766;BME280;65707;52.362;6.588;2022-12-29T12:23:58;100199.81;;;10.77;81.49
76766;BME280;65707;52.362;6.588;2022-12-29T12:26:52;100200.91;;;10.97;80.22
76766;BME280;65707;52.362;6.588;2022-12-29T12:29:25;100193.59;;;10.91;79.94
76766;BME280;65707;52.362;6.588;2022-12-29T12:32:05;100204.63;;;10.81;80.01
76766;BME280;65707;52.362;6.588;2022-12-29T12:34:42;100216.56;;;10.79;80.09
76766;BME280;65707;52.362;6.588;2022-12-29T12:37:23;100216.94;;;10.76;80.19
76766;BME280;65707;52.362;6.588;2022-12-29T12:43:30;100213.75;;;11.66;76.91
76766;BME280;65707;52.362;6.588;2022-12-29T12:46:18;100230.31;;;11.70;76.98
76766;BME280;65707;52.362;6.588;2022-12-29T12:49:05;100219.88;;;11.81;75.55
76766;BME280;65707;52.362;6.588;2022-12-29T12:52:09;100221.38;;;11.48;76.13
76766;BME280;65707;52.362;6.588;2022-12-29T12:55:02;100228.53;;;11.27;76.75
76766;BME280;65707;52.362;6.588;2022-12-29T12:57:52;100225.03;;;11.26;76.87
76766;BME280;65707;52.362;6.588;2022-12-29T13:00:27;100227.19;;;11.52;77.16
76766;BME280;65707;52.362;6.588;2022-12-29T13:03:07;100226.88;;;11.76;75.46
76766;BME280;65707;52.362;6.588;2022-12-29T13:05:55;100235.91;;;11.68;75.15
76766;BME280;65707;52.362;6.588;2022-12-29T13:08:59;100248.31;;;11.69;75.46
76766;BME280;65707;52.362;6.588;2022-12-29T13:11:56;100233.78;;;11.49;75.35
76766;BME280;65707;52.362;6.588;2022-12-29T13:14:41;100242.13;;;11.54;74.18
76766;BME280;65707;52.362;6.588;2022-12-29T13:17:28;100237.56;;;11.55;74.39
76766;BME280;65707;52.362;6.588;2022-12-29T13:20:03;100256.03;;;11.43;74.38
76766;BME280;65707;52.362;6.588;2022-12-29T13:22:44;100255.56;;;11.54;75.47
76766;BME280;65707;52.362;6.588;2022-12-29T13:25:26;100259.31;;;11.60;75.37
76766;BME280;65707;52.362;6.588;2022-12-29T13:28:05;100271.66;;;11.54;75.63
76766;BME280;65707;52.362;6.588;2022-12-29T13:30:40;100264.97;;;11.29;76.96